SWA2863 KOAK-KLAX
Flight info
| Callsign | SWA2863 |
|---|---|
| Flight time | 1h 0m |
| Altitude | 35000 |
| Route | SUSEY EBAYE BURGL IRNMN2 |
| Aircraft | B38M/M-SADE2E3GHIJ4J7P2RWZ/LB1D1 |
Departure
| Time | 2026-04-21 01:23 |
|---|---|
| Airport | San Francisco Bay Oakland International Airport (KOAK) |
Arrival
| Time | 2026-04-21 02:24 |
|---|---|
| Airport | Los Angeles International Airport (KLAX) |
| Time | Latitude | Longitude | Altitude | Speed | Heading |
|---|---|---|---|---|---|
| 2026-04-21 00:57 | 37.71054 | -122.21208 | 17 ft | 0 kts | 87° |
| 2026-04-21 01:15 | 37.71053 | -122.21226 | 17 ft | 3 kts | 88° |
| 2026-04-21 01:15 | 37.71053 | -122.21251 | 21 ft | 3 kts | 89° |
| 2026-04-21 01:15 | 37.71053 | -122.21277 | 19 ft | 3 kts | 92° |
| 2026-04-21 01:16 | 37.71054 | -122.21302 | 17 ft | 3 kts | 103° |
| 2026-04-21 01:16 | 37.71061 | -122.21323 | 17 ft | 3 kts | 139° |
| 2026-04-21 01:16 | 37.71065 | -122.21329 | 17 ft | 2 kts | 208° |
| 2026-04-21 01:16 | 37.71067 | -122.21327 | 17 ft | 1 kts | 218° |
| 2026-04-21 01:19 | 37.71042 | -122.21353 | 17 ft | 11 kts | 218° |
| 2026-04-21 01:19 | 37.70953 | -122.21437 | 16 ft | 19 kts | 216° |
| 2026-04-21 01:19 | 37.70873 | -122.21553 | 15 ft | 16 kts | 258° |
| 2026-04-21 01:20 | 37.70818 | -122.21656 | 16 ft | 14 kts | 220° |
| 2026-04-21 01:20 | 37.70747 | -122.21730 | 15 ft | 13 kts | 220° |
| 2026-04-21 01:20 | 37.70669 | -122.21780 | 14 ft | 13 kts | 180° |
| 2026-04-21 01:20 | 37.70592 | -122.21712 | 14 ft | 19 kts | 131° |
| 2026-04-21 01:21 | 37.70486 | -122.21556 | 13 ft | 25 kts | 130° |
| 2026-04-21 01:21 | 37.70381 | -122.21413 | 11 ft | 17 kts | 151° |
| 2026-04-21 01:21 | 37.70296 | -122.21371 | 8 ft | 11 kts | 161° |
| 2026-04-21 01:21 | 37.70242 | -122.21363 | 11 ft | 0 kts | 191° |
| 2026-04-21 01:22 | 37.70238 | -122.21364 | 12 ft | 3 kts | 194° |
| 2026-04-21 01:22 | 37.70187 | -122.21407 | 10 ft | 12 kts | 218° |
| 2026-04-21 01:22 | 37.70172 | -122.21455 | 9 ft | 1 kts | 292° |
| 2026-04-21 01:23 | 37.70226 | -122.21545 | 8 ft | 46 kts | 309° |
| 2026-04-21 01:23 | 37.70630 | -122.22151 | 10 ft | 132 kts | 310° |
| 2026-04-21 01:23 | 37.71359 | -122.23249 | 284 ft | 180 kts | 308° |
| 2026-04-21 01:23 | 37.72124 | -122.24532 | 871 ft | 184 kts | 306° |
| 2026-04-21 01:24 | 37.72936 | -122.25843 | 593 ft | 210 kts | 308° |
| 2026-04-21 01:24 | 37.73993 | -122.27393 | 1038 ft | 247 kts | 311° |
| 2026-04-21 01:24 | 37.75199 | -122.29013 | 1621 ft | 253 kts | 309° |
| 2026-04-21 01:24 | 37.76330 | -122.30586 | 2121 ft | 231 kts | 307° |
| 2026-04-21 01:25 | 37.77400 | -122.32138 | 2446 ft | 241 kts | 302° |
| 2026-04-21 01:25 | 37.78481 | -122.33844 | 2658 ft | 255 kts | 297° |
| 2026-04-21 01:25 | 37.79209 | -122.35805 | 3742 ft | 250 kts | 277° |
| 2026-04-21 01:25 | 37.79265 | -122.37982 | 4823 ft | 247 kts | 253° |
| 2026-04-21 01:26 | 37.78569 | -122.39946 | 5868 ft | 247 kts | 230° |
| 2026-04-21 01:26 | 37.77329 | -122.41404 | 7038 ft | 244 kts | 210° |
| 2026-04-21 01:26 | 37.75735 | -122.42113 | 8139 ft | 245 kts | 188° |
| 2026-04-21 01:26 | 37.74043 | -122.42366 | 9324 ft | 245 kts | 191° |
| 2026-04-21 01:27 | 37.72334 | -122.42724 | 9840 ft | 249 kts | 192° |
| 2026-04-21 01:27 | 37.70641 | -122.43071 | 9978 ft | 245 kts | 191° |
| 2026-04-21 01:27 | 37.68944 | -122.43412 | 9963 ft | 247 kts | 190° |
| 2026-04-21 01:27 | 37.67221 | -122.43772 | 10310 ft | 258 kts | 192° |
| 2026-04-21 01:28 | 37.65378 | -122.44167 | 10839 ft | 279 kts | 191° |
| 2026-04-21 01:28 | 37.63424 | -122.44587 | 11288 ft | 297 kts | 191° |
| 2026-04-21 01:28 | 37.61342 | -122.45028 | 11881 ft | 307 kts | 189° |
| 2026-04-21 01:28 | 37.59234 | -122.45459 | 12844 ft | 307 kts | 189° |
| 2026-04-21 01:29 | 37.57102 | -122.45883 | 13674 ft | 313 kts | 188° |
| 2026-04-21 01:29 | 37.54945 | -122.46306 | 14458 ft | 314 kts | 188° |
| 2026-04-21 01:29 | 37.52771 | -122.46728 | 15192 ft | 319 kts | 188° |
| 2026-04-21 01:29 | 37.50543 | -122.46806 | 15841 ft | 324 kts | 173° |
| 2026-04-21 01:30 | 37.48393 | -122.45862 | 16544 ft | 335 kts | 155° |
| 2026-04-21 01:30 | 37.46547 | -122.43997 | 17241 ft | 348 kts | 141° |
| 2026-04-21 01:30 | 37.44871 | -122.41775 | 17861 ft | 352 kts | 141° |
| 2026-04-21 01:30 | 37.43182 | -122.39523 | 18420 ft | 356 kts | 141° |
| 2026-04-21 01:31 | 37.41481 | -122.37231 | 18917 ft | 361 kts | 141° |
| 2026-04-21 01:31 | 37.39763 | -122.34906 | 19409 ft | 365 kts | 141° |
| 2026-04-21 01:31 | 37.38027 | -122.32551 | 19886 ft | 369 kts | 140° |
| 2026-04-21 01:31 | 37.36298 | -122.30204 | 20366 ft | 373 kts | 140° |
| 2026-04-21 01:32 | 37.34524 | -122.27799 | 20844 ft | 377 kts | 141° |
| 2026-04-21 01:32 | 37.32728 | -122.25365 | 21287 ft | 380 kts | 141° |
| 2026-04-21 01:32 | 37.30922 | -122.22919 | 21775 ft | 383 kts | 141° |
| 2026-04-21 01:32 | 37.29100 | -122.20452 | 22228 ft | 387 kts | 141° |
| 2026-04-21 01:33 | 37.27255 | -122.17958 | 22663 ft | 392 kts | 141° |
| 2026-04-21 01:33 | 37.25391 | -122.15439 | 23194 ft | 396 kts | 141° |
| 2026-04-21 01:33 | 37.23507 | -122.12894 | 23667 ft | 400 kts | 141° |
| 2026-04-21 01:33 | 37.21603 | -122.10326 | 24143 ft | 403 kts | 141° |
| 2026-04-21 01:34 | 37.19688 | -122.07744 | 24638 ft | 406 kts | 141° |
| 2026-04-21 01:34 | 37.17761 | -122.05146 | 25054 ft | 409 kts | 141° |
| 2026-04-21 01:34 | 37.15812 | -122.02523 | 25487 ft | 412 kts | 141° |
| 2026-04-21 01:34 | 37.13851 | -121.99886 | 25960 ft | 415 kts | 141° |
| 2026-04-21 01:35 | 37.11895 | -121.97259 | 26393 ft | 418 kts | 141° |
| 2026-04-21 01:35 | 37.09902 | -121.94583 | 26818 ft | 421 kts | 141° |
| 2026-04-21 01:35 | 37.07892 | -121.91886 | 27249 ft | 424 kts | 141° |
| 2026-04-21 01:35 | 37.05876 | -121.89183 | 27661 ft | 426 kts | 141° |
| 2026-04-21 01:36 | 37.03846 | -121.86464 | 28085 ft | 429 kts | 141° |
| 2026-04-21 01:36 | 37.01797 | -121.83723 | 28480 ft | 431 kts | 141° |
| 2026-04-21 01:36 | 36.99763 | -121.81002 | 28877 ft | 434 kts | 141° |
| 2026-04-21 01:36 | 36.97691 | -121.78237 | 29188 ft | 437 kts | 141° |
| 2026-04-21 01:37 | 36.95592 | -121.75433 | 29451 ft | 443 kts | 141° |
| 2026-04-21 01:37 | 36.93485 | -121.72623 | 29891 ft | 444 kts | 141° |
| 2026-04-21 01:37 | 36.92084 | -121.70756 | 30107 ft | 446 kts | 141° |
| 2026-04-21 01:37 | 36.89251 | -121.66984 | 30528 ft | 449 kts | 141° |
| 2026-04-21 01:38 | 36.87113 | -121.64140 | 30907 ft | 449 kts | 141° |
| 2026-04-21 01:38 | 36.84971 | -121.61293 | 31367 ft | 448 kts | 141° |
| 2026-04-21 01:38 | 36.83529 | -121.59378 | 31642 ft | 448 kts | 141° |
| 2026-04-21 01:38 | 36.81392 | -121.56543 | 32015 ft | 448 kts | 141° |
| 2026-04-21 01:39 | 36.79287 | -121.53752 | 32430 ft | 447 kts | 141° |
| 2026-04-21 01:39 | 36.77158 | -121.50930 | 32858 ft | 446 kts | 140° |
| 2026-04-21 01:39 | 36.75028 | -121.48111 | 33235 ft | 447 kts | 140° |
| 2026-04-21 01:39 | 36.72895 | -121.45290 | 33658 ft | 446 kts | 141° |
| 2026-04-21 01:40 | 36.70768 | -121.42480 | 34076 ft | 445 kts | 141° |
| 2026-04-21 01:40 | 36.68645 | -121.39677 | 34432 ft | 444 kts | 141° |
| 2026-04-21 01:40 | 36.66519 | -121.36874 | 34739 ft | 444 kts | 141° |
| 2026-04-21 01:40 | 36.64392 | -121.34071 | 34940 ft | 446 kts | 141° |
| 2026-04-21 01:41 | 36.60143 | -121.28477 | 34946 ft | 443 kts | 141° |
| 2026-04-21 01:41 | 36.55905 | -121.22910 | 34945 ft | 443 kts | 141° |
| 2026-04-21 01:42 | 36.51669 | -121.17351 | 34937 ft | 447 kts | 140° |
| 2026-04-21 01:42 | 36.47375 | -121.11726 | 34952 ft | 448 kts | 140° |
| 2026-04-21 01:43 | 36.43112 | -121.06059 | 34945 ft | 451 kts | 137° |
| 2026-04-21 01:43 | 36.39033 | -121.00134 | 34964 ft | 451 kts | 137° |
| 2026-04-21 01:44 | 36.34925 | -120.94236 | 34966 ft | 451 kts | 138° |
| 2026-04-21 01:44 | 36.30816 | -120.88350 | 34968 ft | 451 kts | 138° |
| 2026-04-21 01:45 | 36.26698 | -120.82465 | 34973 ft | 451 kts | 138° |
| 2026-04-21 01:45 | 36.22605 | -120.76623 | 34975 ft | 452 kts | 138° |
| 2026-04-21 01:46 | 36.18464 | -120.70724 | 34979 ft | 454 kts | 137° |
| 2026-04-21 01:46 | 36.14315 | -120.64826 | 34985 ft | 454 kts | 137° |
| 2026-04-21 01:47 | 36.10174 | -120.58948 | 34993 ft | 453 kts | 137° |
| 2026-04-21 01:47 | 36.06028 | -120.53073 | 34996 ft | 454 kts | 137° |
| 2026-04-21 01:48 | 36.01865 | -120.47184 | 34983 ft | 454 kts | 138° |
| 2026-04-21 01:48 | 35.97729 | -120.41344 | 35000 ft | 455 kts | 138° |
| 2026-04-21 01:49 | 35.93559 | -120.35465 | 34983 ft | 454 kts | 137° |
| 2026-04-21 01:49 | 35.89391 | -120.29598 | 34994 ft | 456 kts | 137° |
| 2026-04-21 01:50 | 35.84720 | -120.24572 | 35002 ft | 438 kts | 155° |
| 2026-04-21 01:50 | 35.79530 | -120.20544 | 34992 ft | 441 kts | 154° |
| 2026-04-21 01:51 | 35.74312 | -120.16579 | 34958 ft | 441 kts | 155° |
| 2026-04-21 01:51 | 35.69066 | -120.12627 | 34989 ft | 442 kts | 155° |
| 2026-04-21 01:52 | 35.61243 | -120.06722 | 34992 ft | 441 kts | 154° |
| 2026-04-21 01:53 | 35.56004 | -120.02772 | 34974 ft | 441 kts | 154° |
| 2026-04-21 01:53 | 35.50780 | -119.98839 | 34978 ft | 440 kts | 154° |
| 2026-04-21 01:54 | 35.45552 | -119.94910 | 34983 ft | 441 kts | 154° |
| 2026-04-21 01:54 | 35.40318 | -119.90983 | 34954 ft | 441 kts | 154° |
| 2026-04-21 01:55 | 35.35076 | -119.87055 | 34965 ft | 441 kts | 155° |
| 2026-04-21 01:55 | 35.29838 | -119.83133 | 34960 ft | 441 kts | 154° |
| 2026-04-21 01:56 | 35.24867 | -119.78651 | 34963 ft | 444 kts | 149° |
| 2026-04-21 01:56 | 35.19964 | -119.74079 | 34944 ft | 443 kts | 149° |
| 2026-04-21 01:57 | 35.15094 | -119.69533 | 34932 ft | 443 kts | 149° |
| 2026-04-21 01:57 | 35.10199 | -119.64970 | 34923 ft | 441 kts | 149° |
| 2026-04-21 01:57 | 35.07774 | -119.62713 | 34338 ft | 437 kts | 149° |
| 2026-04-21 01:58 | 35.05341 | -119.60450 | 33497 ft | 440 kts | 149° |
| 2026-04-21 01:58 | 35.02896 | -119.58177 | 32594 ft | 442 kts | 149° |
| 2026-04-21 01:58 | 35.00433 | -119.55889 | 31665 ft | 446 kts | 149° |
| 2026-04-21 01:58 | 34.97945 | -119.53581 | 30709 ft | 452 kts | 149° |
| 2026-04-21 01:59 | 34.95463 | -119.51278 | 29770 ft | 456 kts | 148° |
| 2026-04-21 01:59 | 34.92925 | -119.48927 | 28737 ft | 460 kts | 148° |
| 2026-04-21 01:59 | 34.90351 | -119.46599 | 27819 ft | 460 kts | 149° |
| 2026-04-21 01:59 | 34.87787 | -119.44304 | 27226 ft | 453 kts | 149° |
| 2026-04-21 02:00 | 34.85268 | -119.42044 | 26667 ft | 446 kts | 149° |
| 2026-04-21 02:00 | 34.82785 | -119.39817 | 26168 ft | 440 kts | 149° |
| 2026-04-21 02:00 | 34.80344 | -119.37630 | 25671 ft | 431 kts | 149° |
| 2026-04-21 02:00 | 34.77964 | -119.35498 | 24953 ft | 418 kts | 149° |
| 2026-04-21 02:01 | 34.75641 | -119.33420 | 24167 ft | 410 kts | 149° |
| 2026-04-21 02:01 | 34.73370 | -119.31429 | 23363 ft | 402 kts | 149° |
| 2026-04-21 02:01 | 34.71117 | -119.29458 | 22497 ft | 395 kts | 149° |
| 2026-04-21 02:01 | 34.68908 | -119.27524 | 21658 ft | 388 kts | 149° |
| 2026-04-21 02:02 | 34.66732 | -119.25620 | 20846 ft | 381 kts | 149° |
| 2026-04-21 02:02 | 34.64596 | -119.23763 | 20096 ft | 375 kts | 150° |
| 2026-04-21 02:02 | 34.62486 | -119.21943 | 19399 ft | 368 kts | 150° |
| 2026-04-21 02:02 | 34.60439 | -119.20176 | 19151 ft | 356 kts | 150° |
| 2026-04-21 02:03 | 34.58425 | -119.18439 | 19092 ft | 355 kts | 150° |
| 2026-04-21 02:03 | 34.56416 | -119.16696 | 18978 ft | 352 kts | 150° |
| 2026-04-21 02:03 | 34.54441 | -119.14943 | 18520 ft | 351 kts | 150° |
| 2026-04-21 02:03 | 34.52479 | -119.13207 | 18153 ft | 348 kts | 150° |
| 2026-04-21 02:04 | 34.50519 | -119.11474 | 17630 ft | 348 kts | 149° |
| 2026-04-21 02:04 | 34.48567 | -119.09750 | 17182 ft | 346 kts | 149° |
| 2026-04-21 02:04 | 34.46643 | -119.08053 | 16756 ft | 345 kts | 149° |
| 2026-04-21 02:04 | 34.44708 | -119.06347 | 16381 ft | 343 kts | 149° |
| 2026-04-21 02:05 | 34.42775 | -119.04670 | 15992 ft | 341 kts | 149° |
| 2026-04-21 02:05 | 34.40850 | -119.02999 | 15601 ft | 339 kts | 149° |
| 2026-04-21 02:05 | 34.38937 | -119.01341 | 15222 ft | 337 kts | 149° |
| 2026-04-21 02:05 | 34.37035 | -118.99691 | 14818 ft | 336 kts | 149° |
| 2026-04-21 02:06 | 34.35139 | -118.98048 | 14414 ft | 334 kts | 149° |
| 2026-04-21 02:06 | 34.33274 | -118.96377 | 14049 ft | 333 kts | 148° |
| 2026-04-21 02:06 | 34.31429 | -118.94701 | 13615 ft | 331 kts | 148° |
| 2026-04-21 02:06 | 34.29585 | -118.93032 | 13176 ft | 330 kts | 148° |
| 2026-04-21 02:07 | 34.27752 | -118.91375 | 12763 ft | 328 kts | 148° |
| 2026-04-21 02:07 | 34.25934 | -118.89733 | 12439 ft | 323 kts | 147° |
| 2026-04-21 02:07 | 34.24169 | -118.88109 | 12269 ft | 314 kts | 147° |
| 2026-04-21 02:07 | 34.22474 | -118.86552 | 12122 ft | 305 kts | 147° |
| 2026-04-21 02:08 | 34.20816 | -118.85030 | 12070 ft | 294 kts | 147° |
| 2026-04-21 02:08 | 34.19204 | -118.83551 | 12022 ft | 289 kts | 147° |
| 2026-04-21 02:08 | 34.17601 | -118.82083 | 11987 ft | 289 kts | 147° |
| 2026-04-21 02:08 | 34.16041 | -118.80557 | 11957 ft | 290 kts | 142° |
| 2026-04-21 02:09 | 34.14551 | -118.78911 | 11907 ft | 291 kts | 142° |
| 2026-04-21 02:09 | 34.13050 | -118.77268 | 11843 ft | 290 kts | 142° |
| 2026-04-21 02:09 | 34.11552 | -118.75641 | 11766 ft | 290 kts | 142° |
| 2026-04-21 02:09 | 34.10049 | -118.74014 | 11600 ft | 290 kts | 142° |
| 2026-04-21 02:10 | 34.08567 | -118.72413 | 11325 ft | 289 kts | 142° |
| 2026-04-21 02:10 | 34.07070 | -118.70798 | 11029 ft | 288 kts | 142° |
| 2026-04-21 02:10 | 34.05579 | -118.69193 | 10770 ft | 286 kts | 142° |
| 2026-04-21 02:10 | 34.04103 | -118.67587 | 10439 ft | 286 kts | 139° |
| 2026-04-21 02:11 | 34.03016 | -118.65556 | 10075 ft | 296 kts | 113° |
| 2026-04-21 02:11 | 34.02656 | -118.63092 | 9752 ft | 298 kts | 100° |
| 2026-04-21 02:11 | 34.02429 | -118.60623 | 9428 ft | 293 kts | 101° |
| 2026-04-21 02:11 | 34.02201 | -118.58225 | 9106 ft | 282 kts | 101° |
| 2026-04-21 02:12 | 34.01982 | -118.55924 | 8818 ft | 271 kts | 101° |
| 2026-04-21 02:12 | 34.01776 | -118.53735 | 8519 ft | 261 kts | 101° |
| 2026-04-21 02:12 | 34.01575 | -118.51595 | 8237 ft | 252 kts | 101° |
| 2026-04-21 02:12 | 34.01380 | -118.49530 | 7987 ft | 246 kts | 101° |
| 2026-04-21 02:13 | 34.01188 | -118.47496 | 7742 ft | 243 kts | 100° |
| 2026-04-21 02:13 | 34.01094 | -118.45463 | 7448 ft | 245 kts | 87° |
| 2026-04-21 02:13 | 34.01408 | -118.43435 | 7142 ft | 247 kts | 81° |
| 2026-04-21 02:13 | 34.01760 | -118.41405 | 6847 ft | 248 kts | 81° |
| 2026-04-21 02:14 | 34.02110 | -118.39371 | 6548 ft | 248 kts | 81° |
| 2026-04-21 02:14 | 34.02461 | -118.37329 | 6225 ft | 249 kts | 81° |
| 2026-04-21 02:14 | 34.02770 | -118.35287 | 6037 ft | 242 kts | 86° |
| 2026-04-21 02:14 | 34.02972 | -118.33315 | 6034 ft | 235 kts | 86° |
| 2026-04-21 02:15 | 34.03174 | -118.31366 | 6011 ft | 234 kts | 86° |
| 2026-04-21 02:15 | 34.03382 | -118.29419 | 5992 ft | 234 kts | 85° |
| 2026-04-21 02:15 | 34.03595 | -118.27467 | 5892 ft | 235 kts | 86° |
| 2026-04-21 02:15 | 34.03809 | -118.25513 | 5659 ft | 234 kts | 85° |
| 2026-04-21 02:16 | 34.04019 | -118.23591 | 5396 ft | 234 kts | 85° |
| 2026-04-21 02:16 | 34.04234 | -118.21637 | 5065 ft | 236 kts | 85° |
| 2026-04-21 02:16 | 34.04450 | -118.19658 | 4720 ft | 239 kts | 85° |
| 2026-04-21 02:16 | 34.04670 | -118.17653 | 4360 ft | 242 kts | 84° |
| 2026-04-21 02:17 | 34.04887 | -118.15667 | 4067 ft | 235 kts | 83° |
| 2026-04-21 02:17 | 34.05098 | -118.13747 | 3813 ft | 228 kts | 83° |
| 2026-04-21 02:17 | 34.05052 | -118.11870 | 3535 ft | 223 kts | 109° |
| 2026-04-21 02:17 | 34.04218 | -118.10344 | 3265 ft | 219 kts | 142° |
| 2026-04-21 02:18 | 34.02839 | -118.09648 | 3070 ft | 217 kts | 176° |
| 2026-04-21 02:18 | 34.01387 | -118.10007 | 2969 ft | 216 kts | 210° |
| 2026-04-21 02:18 | 34.00282 | -118.11217 | 3002 ft | 217 kts | 230° |
| 2026-04-21 02:18 | 33.99329 | -118.12644 | 2996 ft | 219 kts | 231° |
| 2026-04-21 02:19 | 33.98384 | -118.14081 | 2988 ft | 218 kts | 231° |
| 2026-04-21 02:19 | 33.97694 | -118.15685 | 2958 ft | 217 kts | 258° |
| 2026-04-21 02:19 | 33.97509 | -118.17492 | 3015 ft | 219 kts | 263° |
| 2026-04-21 02:19 | 33.97337 | -118.19302 | 3009 ft | 211 kts | 262° |
| 2026-04-21 02:20 | 33.97163 | -118.21025 | 3000 ft | 205 kts | 262° |
| 2026-04-21 02:20 | 33.96990 | -118.22728 | 2908 ft | 206 kts | 262° |
| 2026-04-21 02:20 | 33.96818 | -118.24419 | 2690 ft | 201 kts | 263° |
| 2026-04-21 02:20 | 33.96651 | -118.26052 | 2442 ft | 193 kts | 262° |
| 2026-04-21 02:21 | 33.96491 | -118.27630 | 2188 ft | 188 kts | 262° |
| 2026-04-21 02:21 | 33.96333 | -118.29183 | 1947 ft | 184 kts | 262° |
| 2026-04-21 02:21 | 33.96182 | -118.30672 | 1725 ft | 171 kts | 261° |
| 2026-04-21 02:21 | 33.96044 | -118.32035 | 1496 ft | 160 kts | 261° |
| 2026-04-21 02:22 | 33.95915 | -118.33309 | 1298 ft | 147 kts | 261° |
| 2026-04-21 02:22 | 33.95808 | -118.34481 | 1065 ft | 136 kts | 260° |
| 2026-04-21 02:22 | 33.95669 | -118.35594 | 914 ft | 135 kts | 262° |
| 2026-04-21 02:22 | 33.95563 | -118.36723 | 744 ft | 135 kts | 265° |
| 2026-04-21 02:23 | 33.95461 | -118.37882 | 583 ft | 143 kts | 261° |
| 2026-04-21 02:23 | 33.95331 | -118.39052 | 370 ft | 136 kts | 261° |
| 2026-04-21 02:23 | 33.95218 | -118.40137 | 192 ft | 128 kts | 261° |
| 2026-04-21 02:23 | 33.95115 | -118.41132 | 128 ft | 104 kts | 263° |
| 2026-04-21 02:24 | 33.95047 | -118.41786 | 126 ft | 69 kts | 263° |
| 2026-04-21 02:24 | 33.94996 | -118.42284 | 128 ft | 43 kts | 262° |
| 2026-04-21 02:24 | 33.94957 | -118.42477 | 126 ft | 31 kts | 248° |
| 2026-04-21 02:24 | 33.94865 | -118.42663 | 127 ft | 13 kts | 227° |
| 2026-04-21 02:25 | 33.94736 | -118.42769 | 124 ft | 16 kts | 198° |
| 2026-04-21 02:25 | 33.94643 | -118.42754 | 127 ft | 11 kts | 128° |
| 2026-04-21 02:25 | 33.94636 | -118.42711 | 128 ft | 0 kts | 86° |
| 2026-04-21 02:26 | 33.94638 | -118.42672 | 128 ft | 11 kts | 84° |
| 2026-04-21 02:26 | 33.94650 | -118.42562 | 128 ft | 12 kts | 83° |
| 2026-04-21 02:26 | 33.94658 | -118.42471 | 128 ft | 12 kts | 83° |
| 2026-04-21 02:27 | 33.94671 | -118.42345 | 128 ft | 14 kts | 81° |
| 2026-04-21 02:27 | 33.94674 | -118.42322 | 125 ft | 6 kts | 83° |
| 2026-04-21 02:27 | 33.94685 | -118.42218 | 127 ft | 19 kts | 83° |
| 2026-04-21 02:27 | 33.94705 | -118.42036 | 125 ft | 23 kts | 83° |
| 2026-04-21 02:28 | 33.94723 | -118.41848 | 128 ft | 24 kts | 83° |
| 2026-04-21 02:28 | 33.94738 | -118.41699 | 128 ft | 15 kts | 84° |
| 2026-04-21 02:28 | 33.94754 | -118.41558 | 128 ft | 17 kts | 82° |
| 2026-04-21 02:28 | 33.94773 | -118.41420 | 128 ft | 18 kts | 77° |
| 2026-04-21 02:29 | 33.94795 | -118.41281 | 128 ft | 11 kts | 85° |
| 2026-04-21 02:29 | 33.94819 | -118.41043 | 126 ft | 16 kts | 83° |
| 2026-04-21 02:29 | 33.94838 | -118.40850 | 128 ft | 30 kts | 83° |
| 2026-04-21 02:30 | 33.94864 | -118.40599 | 128 ft | 31 kts | 83° |
| 2026-04-21 02:30 | 33.94891 | -118.40347 | 126 ft | 27 kts | 83° |
| 2026-04-21 02:30 | 33.94913 | -118.40155 | 128 ft | 17 kts | 79° |
| 2026-04-21 02:30 | 33.94876 | -118.40080 | 124 ft | 11 kts | 178° |
| 2026-04-21 02:31 | 33.94838 | -118.40149 | 128 ft | 12 kts | 261° |
| 2026-04-21 02:31 | 33.94824 | -118.40192 | 127 ft | 1 kts | 191° |
| 2026-04-21 02:31 | 33.94794 | -118.40182 | 127 ft | 3 kts | 135° |
| 2026-04-21 02:31 | 33.94787 | -118.40175 | 126 ft | 0 kts | 137° |